sensor_id;sensor_type;location;lat;lon;timestamp;pressure;altitude;pressure_sealevel;temperature;humidity
20105;BME280;10212;42.714;23.310;2024-01-27T00:07:38;95648.28;;;1.46;76.67
20105;BME280;10212;42.714;23.310;2024-01-27T00:17:38;95634.72;;;1.34;76.92
20105;BME280;10212;42.714;23.310;2024-01-27T00:27:39;95637.56;;;1.30;77.68
20105;BME280;10212;42.714;23.310;2024-01-27T00:37:40;95627.97;;;1.42;77.06
20105;BME280;10212;42.714;23.310;2024-01-27T00:47:41;95632.44;;;1.40;77.55
20105;BME280;10212;42.714;23.310;2024-01-27T00:57:41;95621.22;;;1.41;77.74
20105;BME280;10212;42.714;23.310;2024-01-27T01:07:42;95618.25;;;1.56;78.27
20105;BME280;10212;42.714;23.310;2024-01-27T01:17:42;95630.72;;;1.61;79.06
20105;BME280;10212;42.714;23.310;2024-01-27T01:27:42;95619.38;;;1.83;78.70
20105;BME280;10212;42.714;23.310;2024-01-27T01:37:43;95602.84;;;1.96;77.32
20105;BME280;10212;42.714;23.310;2024-01-27T01:47:44;95590.81;;;2.06;77.09
20105;BME280;10212;42.714;23.310;2024-01-27T01:57:44;95593.34;;;2.26;75.57
20105;BME280;10212;42.714;23.310;2024-01-27T02:07:45;95581.81;;;2.30;73.94
20105;BME280;10212;42.714;23.310;2024-01-27T02:17:46;95561.13;;;2.22;73.91
20105;BME280;10212;42.714;23.310;2024-01-27T02:27:46;95564.78;;;2.09;74.60
20105;BME280;10212;42.714;23.310;2024-01-27T02:37:46;95563.47;;;1.85;75.87
20105;BME280;10212;42.714;23.310;2024-01-27T02:47:47;95571.19;;;2.05;75.24
20105;BME280;10212;42.714;23.310;2024-01-27T02:57:47;95557.94;;;2.00;76.19
20105;BME280;10212;42.714;23.310;2024-01-27T03:07:48;95563.59;;;1.93;75.00
20105;BME280;10212;42.714;23.310;2024-01-27T03:17:48;95562.63;;;2.24;72.07
20105;BME280;10212;42.714;23.310;2024-01-27T03:27:48;95566.59;;;2.85;72.99
20105;BME280;10212;42.714;23.310;2024-01-27T03:37:49;95548.88;;;2.82;76.73
20105;BME280;10212;42.714;23.310;2024-01-27T03:47:49;95546.63;;;2.69;80.70
20105;BME280;10212;42.714;23.310;2024-01-27T03:57:50;95543.75;;;2.34;85.56
20105;BME280;10212;42.714;23.310;2024-01-27T04:07:50;95544.19;;;2.29;88.20
20105;BME280;10212;42.714;23.310;2024-01-27T04:17:51;95533.31;;;2.35;88.77
20105;BME280;10212;42.714;23.310;2024-01-27T04:27:51;95540.78;;;2.28;89.04
20105;BME280;10212;42.714;23.310;2024-01-27T04:37:53;95545.13;;;2.28;89.55
20105;BME280;10212;42.714;23.310;2024-01-27T04:47:53;95538.25;;;2.19;91.47
20105;BME280;10212;42.714;23.310;2024-01-27T04:57:54;95547.06;;;2.06;93.98
20105;BME280;10212;42.714;23.310;2024-01-27T05:07:54;95549.53;;;1.78;97.33
20105;BME280;10212;42.714;23.310;2024-01-27T05:17:55;95564.78;;;1.30;100.00
20105;BME280;10212;42.714;23.310;2024-01-27T05:27:55;95576.13;;;1.07;100.00
20105;BME280;10212;42.714;23.310;2024-01-27T05:37:56;95573.28;;;1.11;100.00
20105;BME280;10212;42.714;23.310;2024-01-27T05:47:56;95580.16;;;1.10;100.00
20105;BME280;10212;42.714;23.310;2024-01-27T05:57:57;95588.97;;;0.76;100.00
20105;BME280;10212;42.714;23.310;2024-01-27T06:07:57;95598.34;;;0.56;100.00
20105;BME280;10212;42.714;23.310;2024-01-27T06:17:58;95616.72;;;0.30;100.00
20105;BME280;10212;42.714;23.310;2024-01-27T06:27:58;95623.00;;;0.47;100.00
20105;BME280;10212;42.714;23.310;2024-01-27T06:37:59;95642.28;;;0.63;100.00
20105;BME280;10212;42.714;23.310;2024-01-27T06:47:59;95655.06;;;1.66;100.00
20105;BME280;10212;42.714;23.310;2024-01-27T06:57:59;95656.56;;;1.79;100.00
20105;BME280;10212;42.714;23.310;2024-01-27T07:08:00;95642.66;;;2.31;100.00
20105;BME280;10212;42.714;23.310;2024-01-27T07:18:00;95641.19;;;2.86;99.88
20105;BME280;10212;42.714;23.310;2024-01-27T07:28:01;95658.19;;;3.07;97.12
20105;BME280;10212;42.714;23.310;2024-01-27T07:38:01;95723.06;;;2.93;98.03
20105;BME280;10212;42.714;23.310;2024-01-27T07:48:01;95738.47;;;3.12;92.88
20105;BME280;10212;42.714;23.310;2024-01-27T07:58:02;95738.19;;;3.16;91.13
20105;BME280;10212;42.714;23.310;2024-01-27T08:08:03;95773.03;;;3.20;90.36
20105;BME280;10212;42.714;23.310;2024-01-27T08:18:04;95763.38;;;3.32;89.78
20105;BME280;10212;42.714;23.310;2024-01-27T08:28:05;95772.91;;;3.11;90.59
20105;BME280;10212;42.714;23.310;2024-01-27T08:38:05;95781.22;;;3.53;87.87
20105;BME280;10212;42.714;23.310;2024-01-27T08:48:06;95767.97;;;3.38;87.59
20105;BME280;10212;42.714;23.310;2024-01-27T08:58:07;95747.47;;;3.74;85.75
20105;BME280;10212;42.714;23.310;2024-01-27T09:08:07;95745.72;;;4.40;81.93
20105;BME280;10212;42.714;23.310;2024-01-27T09:18:08;95749.66;;;4.16;81.62
20105;BME280;10212;42.714;23.310;2024-01-27T09:28:08;95749.97;;;4.13;82.38
20105;BME280;10212;42.714;23.310;2024-01-27T09:38:08;95743.63;;;3.79;83.91
20105;BME280;10212;42.714;23.310;2024-01-27T09:48:12;95738.81;;;3.66;85.09
20105;BME280;10212;42.714;23.310;2024-01-27T09:58:13;95746.19;;;3.60;83.43
20105;BME280;10212;42.714;23.310;2024-01-27T10:08:15;95762.97;;;3.65;83.90
20105;BME280;10212;42.714;23.310;2024-01-27T10:18:15;95761.44;;;3.44;84.48
20105;BME280;10212;42.714;23.310;2024-01-27T10:28:16;95774.78;;;3.29;85.67
20105;BME280;10212;42.714;23.310;2024-01-27T10:38:17;95773.66;;;3.42;85.09
20105;BME280;10212;42.714;23.310;2024-01-27T10:48:17;95780.47;;;3.33;85.31
20105;BME280;10212;42.714;23.310;2024-01-27T10:58:19;95803.13;;;3.29;85.40
20105;BME280;10212;42.714;23.310;2024-01-27T11:08:24;95819.56;;;3.28;86.49
20105;BME280;10212;42.714;23.310;2024-01-27T11:18:29;95809.81;;;3.22;86.79
20105;BME280;10212;42.714;23.310;2024-01-27T11:28:30;95800.00;;;3.35;87.15
20105;BME280;10212;42.714;23.310;2024-01-27T11:38:31;95817.38;;;3.33;86.50
20105;BME280;10212;42.714;23.310;2024-01-27T11:48:31;95807.50;;;3.29;85.61
20105;BME280;10212;42.714;23.310;2024-01-27T11:58:32;95839.38;;;3.18;84.08
20105;BME280;10212;42.714;23.310;2024-01-27T12:08:35;95854.16;;;3.16;82.29
20105;BME280;10212;42.714;23.310;2024-01-27T12:18:36;95864.19;;;3.38;81.45
20105;BME280;10212;42.714;23.310;2024-01-27T12:28:36;95884.84;;;3.86;78.73
20105;BME280;10212;42.714;23.310;2024-01-27T12:38:37;95873.06;;;4.12;76.10
20105;BME280;10212;42.714;23.310;2024-01-27T12:48:38;95869.34;;;3.86;77.88
20105;BME280;10212;42.714;23.310;2024-01-27T12:58:39;95875.19;;;3.79;77.79
20105;BME280;10212;42.714;23.310;2024-01-27T13:08:40;95852.69;;;3.71;76.48
20105;BME280;10212;42.714;23.310;2024-01-27T13:18:41;95855.06;;;3.34;74.45
20105;BME280;10212;42.714;23.310;2024-01-27T13:28:42;95886.97;;;3.33;72.13
20105;BME280;10212;42.714;23.310;2024-01-27T13:38:42;95890.09;;;3.37;70.88
20105;BME280;10212;42.714;23.310;2024-01-27T13:48:42;95880.84;;;3.34;69.30
20105;BME280;10212;42.714;23.310;2024-01-27T13:58:43;95901.50;;;3.15;69.31
20105;BME280;10212;42.714;23.310;2024-01-27T14:08:44;95898.50;;;2.99;70.96
20105;BME280;10212;42.714;23.310;2024-01-27T14:18:45;95898.78;;;2.86;71.97
20105;BME280;10212;42.714;23.310;2024-01-27T14:28:46;95913.16;;;2.79;71.41
20105;BME280;10212;42.714;23.310;2024-01-27T14:38:46;95898.63;;;2.78;70.64
20105;BME280;10212;42.714;23.310;2024-01-27T14:48:46;95921.25;;;2.64;71.44
20105;BME280;10212;42.714;23.310;2024-01-27T14:58:47;95917.44;;;2.59;72.18
20105;BME280;10212;42.714;23.310;2024-01-27T15:08:51;95913.38;;;2.56;71.92
20105;BME280;10212;42.714;23.310;2024-01-27T15:18:52;95919.56;;;2.44;72.00
20105;BME280;10212;42.714;23.310;2024-01-27T15:28:52;95935.53;;;2.37;72.86
20105;BME280;10212;42.714;23.310;2024-01-27T15:38:53;95956.91;;;2.28;73.34
20105;BME280;10212;42.714;23.310;2024-01-27T15:48:53;95978.09;;;2.41;72.20
20105;BME280;10212;42.714;23.310;2024-01-27T15:58:54;95995.50;;;2.49;70.39
20105;BME280;10212;42.714;23.310;2024-01-27T16:08:54;96002.66;;;2.46;68.70
20105;BME280;10212;42.714;23.310;2024-01-27T16:18:55;96008.63;;;2.25;68.68
20105;BME280;10212;42.714;23.310;2024-01-27T16:28:55;96011.84;;;2.17;67.87
20105;BME280;10212;42.714;23.310;2024-01-27T16:38:56;96004.72;;;1.99;68.41
20105;BME280;10212;42.714;23.310;2024-01-27T16:48:56;96011.59;;;1.99;68.65
20105;BME280;10212;42.714;23.310;2024-01-27T16:58:57;96028.03;;;1.86;68.93
20105;BME280;10212;42.714;23.310;2024-01-27T17:08:57;96030.03;;;1.83;69.39
20105;BME280;10212;42.714;23.310;2024-01-27T17:18:58;96041.16;;;1.83;69.44
20105;BME280;10212;42.714;23.310;2024-01-27T17:28:59;96042.47;;;1.77;69.21
20105;BME280;10212;42.714;23.310;2024-01-27T17:38:59;96049.16;;;1.68;69.48
20105;BME280;10212;42.714;23.310;2024-01-27T17:48:59;96047.44;;;1.58;70.30
20105;BME280;10212;42.714;23.310;2024-01-27T17:59:00;96047.81;;;1.53;70.80
20105;BME280;10212;42.714;23.310;2024-01-27T18:09:00;96069.16;;;1.65;70.12
20105;BME280;10212;42.714;23.310;2024-01-27T18:19:01;96083.03;;;1.74;70.49
20105;BME280;10212;42.714;23.310;2024-01-27T18:29:01;96073.41;;;1.87;70.05
20105;BME280;10212;42.714;23.310;2024-01-27T18:39:02;96078.50;;;1.99;69.05
20105;BME280;10212;42.714;23.310;2024-01-27T18:49:02;96070.47;;;1.92;69.98
20105;BME280;10212;42.714;23.310;2024-01-27T18:59:03;96073.72;;;1.94;69.53
20105;BME280;10212;42.714;23.310;2024-01-27T19:09:03;96078.78;;;1.84;69.80
20105;BME280;10212;42.714;23.310;2024-01-27T19:19:04;96083.25;;;1.82;69.49
20105;BME280;10212;42.714;23.310;2024-01-27T19:29:04;96087.19;;;1.86;68.82
20105;BME280;10212;42.714;23.310;2024-01-27T19:39:05;96094.22;;;1.84;68.25
20105;BME280;10212;42.714;23.310;2024-01-27T19:49:05;96098.63;;;1.93;68.51
20105;BME280;10212;42.714;23.310;2024-01-27T19:59:05;96110.78;;;1.91;69.30
20105;BME280;10212;42.714;23.310;2024-01-27T20:09:06;96095.34;;;1.91;68.92
20105;BME280;10212;42.714;23.310;2024-01-27T20:19:07;96117.81;;;1.89;68.32
20105;BME280;10212;42.714;23.310;2024-01-27T20:29:08;96120.38;;;1.89;68.17
20105;BME280;10212;42.714;23.310;2024-01-27T20:39:09;96132.06;;;1.93;67.30
20105;BME280;10212;42.714;23.310;2024-01-27T20:49:09;96142.41;;;1.82;67.94
20105;BME280;10212;42.714;23.310;2024-01-27T20:59:10;96127.44;;;1.76;68.80
20105;BME280;10212;42.714;23.310;2024-01-27T21:09:11;96127.94;;;1.70;69.66
20105;BME280;10212;42.714;23.310;2024-01-27T21:19:11;96121.59;;;1.74;70.10
20105;BME280;10212;42.714;23.310;2024-01-27T21:29:12;96115.34;;;1.55;71.84
20105;BME280;10212;42.714;23.310;2024-01-27T21:39:12;96126.22;;;1.47;73.21
20105;BME280;10212;42.714;23.310;2024-01-27T21:49:14;96123.81;;;1.34;73.80
20105;BME280;10212;42.714;23.310;2024-01-27T21:59:14;96138.41;;;1.22;75.15
20105;BME280;10212;42.714;23.310;2024-01-27T22:09:16;96132.44;;;1.33;75.69
20105;BME280;10212;42.714;23.310;2024-01-27T22:19:17;96121.59;;;1.29;76.42
20105;BME280;10212;42.714;23.310;2024-01-27T22:29:17;96131.66;;;1.32;75.20
20105;BME280;10212;42.714;23.310;2024-01-27T22:39:18;96122.16;;;1.33;74.80
20105;BME280;10212;42.714;23.310;2024-01-27T22:49:18;96129.75;;;1.35;75.22
20105;BME280;10212;42.714;23.310;2024-01-27T22:59:21;96138.53;;;1.32;75.11
20105;BME280;10212;42.714;23.310;2024-01-27T23:09:25;96130.59;;;1.24;75.79
20105;BME280;10212;42.714;23.310;2024-01-27T23:19:31;96149.28;;;1.03;76.95
20105;BME280;10212;42.714;23.310;2024-01-27T23:29:35;96156.06;;;1.04;78.13
20105;BME280;10212;42.714;23.310;2024-01-27T23:39:37;96158.28;;;0.97;78.83
20105;BME280;10212;42.714;23.310;2024-01-27T23:49:43;96165.75;;;1.00;78.33
20105;BME280;10212;42.714;23.310;2024-01-27T23:59:51;96164.47;;;0.94;78.93
